Time;durP1;ratioP1;P1;durP2;ratioP2;P2;SDS_P1;SDS_P2;PMS_P1;PMS_P2;Temp;Humidity;BMP_temperature;BMP_pressure;BME280_temperature;BME280_humidity;BME280_pressure;Samples;Min_cycle;Max_cycle;Signal;HPM_P1;HPM_P2
2023/08/08 00:00:27;;;;;;;2.03;1.93;;;;;;;23.30;59.96;99044.16;5035061;28;20200;-77
2023/08/08 00:02:54;;;;;;;3.00;1.80;;;;;;;23.36;59.92;99048.41;5035127;28;20249;-74
2023/08/08 00:05:21;;;;;;;3.53;2.00;;;;;;;23.27;60.09;99047.44;5033202;28;20248;-75
2023/08/08 00:07:49;;;;;;;1.87;1.77;;;;;;;23.30;60.23;99044.16;5034723;28;20199;-75
2023/08/08 00:10:16;;;;;;;1.87;1.77;;;;;;;23.15;60.22;99030.75;5034733;28;20203;-74
2023/08/08 00:12:42;;;;;;;2.00;1.90;;;;;;;23.30;60.00;99041.47;5034927;28;20289;-73
2023/08/08 00:15:09;;;;;;;2.50;2.33;;;;;;;23.28;60.51;99045.56;5034817;28;20197;-78
2023/08/08 00:17:36;;;;;;;1.60;1.50;;;;;;;23.20;60.70;99038.84;5034465;28;20224;-80
2023/08/08 00:20:03;;;;;;;1.80;1.70;;;;;;;23.28;60.50;99051.78;5033918;28;20192;-78
2023/08/08 00:22:30;;;;;;;1.90;1.57;;;;;;;23.23;60.79;99042.91;5033758;28;20200;-78
2023/08/08 00:24:58;;;;;;;2.10;2.00;;;;;;;23.21;61.02;99051.31;5033979;28;20789;-78
2023/08/08 00:27:25;;;;;;;1.47;1.37;;;;;;;23.19;61.25;99049.97;5033464;28;20200;-78
2023/08/08 00:29:53;;;;;;;1.90;1.80;;;;;;;23.24;61.75;99058.06;5034607;28;20204;-77
2023/08/08 00:32:19;;;;;;;2.80;1.50;;;;;;;23.11;63.03;99059.53;5034761;28;20206;-76
2023/08/08 00:34:46;;;;;;;1.43;1.37;;;;;;;23.04;63.40;99056.38;5034380;28;20190;-77
2023/08/08 00:37:13;;;;;;;1.40;1.30;;;;;;;23.15;63.42;99063.28;5033596;28;20282;-83
2023/08/08 00:39:42;;;;;;;1.80;1.70;;;;;;;23.21;63.06;99070.31;5034280;28;20196;-75
2023/08/08 00:42:10;;;;;;;1.33;1.30;;;;;;;23.13;63.57;99070.06;5032659;28;20184;-78
2023/08/08 00:44:37;;;;;;;2.40;1.73;;;;;;;23.08;63.65;99062.78;5033353;28;20261;-77
2023/08/08 00:47:04;;;;;;;1.37;1.33;;;;;;;23.20;63.35;99060.53;5033947;28;20196;-78
2023/08/08 00:49:31;;;;;;;1.37;1.23;;;;;;;23.16;63.95;99059.47;5034151;28;20196;-76
2023/08/08 00:51:58;;;;;;;4.10;1.67;;;;;;;23.19;63.99;99058.88;5032757;28;20448;-76
2023/08/08 00:54:25;;;;;;;1.73;1.40;;;;;;;23.07;64.93;99053.06;5033296;28;20287;-72
2023/08/08 00:56:51;;;;;;;1.70;1.60;;;;;;;23.12;65.05;99058.41;5033925;28;20250;-73
2023/08/08 00:59:20;;;;;;;1.20;1.10;;;;;;;23.09;65.21;99059.00;5033894;28;20196;-73
2023/08/08 01:01:47;;;;;;;3.83;1.40;;;;;;;23.14;65.47;99058.13;5033871;28;20194;-75
2023/08/08 01:04:14;;;;;;;1.23;1.20;;;;;;;23.14;65.29;99056.25;5033837;28;20261;-75
2023/08/08 01:06:49;;;;;;;1.83;1.37;;;;;;;23.14;65.38;99058.13;5033863;28;20199;-75
2023/08/08 01:09:24;;;;;;;1.30;1.20;;;;;;;22.98;66.02;99062.09;5032112;28;20183;-73
2023/08/08 01:11:53;;;;;;;1.30;1.30;;;;;;;23.08;65.86;99065.50;5033949;28;20187;-73
2023/08/08 01:14:25;;;;;;;10.27;1.50;;;;;;;22.92;66.53;99058.66;5033218;28;20622;-73
2023/08/08 01:16:57;;;;;;;0.97;0.90;;;;;;;22.97;66.31;99065.91;5033761;28;20196;-74
2023/08/08 01:19:27;;;;;;;0.97;0.97;;;;;;;22.98;66.27;99068.34;5033710;28;20280;-74
2023/08/08 01:21:54;;;;;;;0.90;0.90;;;;;;;23.04;66.19;99074.50;5034137;28;20199;-73
2023/08/08 01:24:23;;;;;;;1.20;1.00;;;;;;;22.83;66.11;99087.44;5032189;28;20221;-75
2023/08/08 01:26:50;;;;;;;0.97;0.97;;;;;;;22.82;65.93;99090.44;5034071;28;20197;-75
2023/08/08 01:29:17;;;;;;;0.73;0.73;;;;;;;22.83;65.58;99098.25;5033432;28;20195;-75
2023/08/08 01:31:44;;;;;;;1.70;0.80;;;;;;;22.64;65.36;99100.09;5033163;28;20737;-75
2023/08/08 01:34:11;;;;;;;2.30;0.90;;;;;;;22.41;65.98;99092.63;5033271;28;20199;-74
2023/08/08 01:36:45;;;;;;;1.23;0.73;;;;;;;22.49;66.04;99107.50;5033037;28;20657;-74
2023/08/08 01:39:17;;;;;;;0.63;0.63;;;;;;;22.59;65.50;99102.84;5032832;28;20744;-74
2023/08/08 01:41:48;;;;;;;1.20;0.90;;;;;;;22.65;65.28;99107.09;5032247;28;20186;-75
2023/08/08 01:44:15;;;;;;;1.03;0.60;;;;;;;22.63;65.64;99105.78;5032809;28;20226;-75
2023/08/08 01:46:42;;;;;;;0.67;0.67;;;;;;;22.59;65.81;99108.25;5033178;28;20191;-74
2023/08/08 01:49:08;;;;;;;6.53;0.83;;;;;;;22.49;66.26;99119.13;5033024;28;20340;-76
2023/08/08 01:51:35;;;;;;;0.70;0.70;;;;;;;22.37;66.84;99121.34;5032708;28;20195;-74
2023/08/08 01:54:02;;;;;;;0.90;0.80;;;;;;;22.47;66.38;99115.91;5032668;28;20194;-75
2023/08/08 01:56:29;;;;;;;1.90;0.90;;;;;;;22.33;67.03;99114.88;5032003;28;20196;-76
2023/08/08 01:58:57;;;;;;;1.67;0.70;;;;;;;22.21;67.39;99119.84;5032883;28;20219;-74
2023/08/08 02:01:24;;;;;;;0.93;0.87;;;;;;;22.23;67.38;99114.97;5032744;28;20249;-75
2023/08/08 02:03:51;;;;;;;1.17;0.87;;;;;;;22.41;66.85;99122.41;5032458;28;20570;-76
2023/08/08 02:06:17;;;;;;;0.70;0.70;;;;;;;22.33;66.65;99111.41;5032391;28;20662;-75
2023/08/08 02:08:44;;;;;;;0.93;0.93;;;;;;;22.37;66.62;99121.34;5032708;28;20199;-77
2023/08/08 02:11:11;;;;;;;5.67;0.87;;;;;;;22.17;67.55;99124.19;5032625;28;20211;-76
2023/08/08 02:13:37;;;;;;;3.10;1.00;;;;;;;22.15;67.70;99139.91;5031570;28;20198;-77
2023/08/08 02:16:06;;;;;;;2.20;0.90;;;;;;;22.03;68.41;99133.19;5032428;28;20198;-75
2023/08/08 02:18:32;;;;;;;1.37;0.80;;;;;;;22.18;68.63;99131.25;5033097;28;20222;-78
2023/08/08 02:20:59;;;;;;;0.80;0.73;;;;;;;22.10;68.28;99139.94;5032504;28;20189;-74
2023/08/08 02:23:26;;;;;;;1.43;0.90;;;;;;;21.80;69.52;99131.16;5032155;28;20604;-74
2023/08/08 02:25:53;;;;;;;1.10;1.07;;;;;;;21.78;69.71;99144.97;5032512;28;20232;-75
2023/08/08 02:28:19;;;;;;;3.10;0.80;;;;;;;21.87;69.32;99158.69;5031155;28;20240;-74
2023/08/08 02:30:46;;;;;;;3.63;0.90;;;;;;;21.91;69.42;99155.19;5032009;28;20194;-75
2023/08/08 02:33:14;;;;;;;0.87;0.87;;;;;;;21.82;69.30;99143.31;5032539;28;20202;-76
2023/08/08 02:35:41;;;;;;;1.00;0.87;;;;;;;21.82;69.31;99147.91;5031971;28;20628;-73
2023/08/08 02:38:08;;;;;;;1.20;1.10;;;;;;;21.60;70.34;99159.03;5032429;28;20225;-76
2023/08/08 02:40:34;;;;;;;0.80;0.80;;;;;;;21.46;70.59;99149.91;5031838;28;20197;-75
2023/08/08 02:43:01;;;;;;;0.77;0.77;;;;;;;21.49;71.32;99164.75;5031763;28;20658;-76
2023/08/08 02:45:28;;;;;;;2.73;0.90;;;;;;;21.48;71.52;99166.63;5031089;28;20197;-75
2023/08/08 02:47:54;;;;;;;1.00;1.00;;;;;;;21.38;72.35;99172.06;5032191;28;20256;-76
2023/08/08 02:50:22;;;;;;;0.80;0.80;;;;;;;21.68;71.57;99177.41;5031226;28;20194;-76
2023/08/08 02:52:51;;;;;;;0.80;0.80;;;;;;;21.67;72.22;99167.66;5031744;28;20246;-75
2023/08/08 02:55:18;;;;;;;1.07;0.97;;;;;;;21.83;70.62;99173.84;5032034;28;20642;-76
2023/08/08 02:57:45;;;;;;;1.20;0.83;;;;;;;21.33;72.35;99164.00;5031779;28;20283;-76
2023/08/08 03:00:13;;;;;;;2.30;0.90;;;;;;;21.32;72.96;99166.97;5031537;28;20729;-76
2023/08/08 03:02:39;;;;;;;2.00;1.07;;;;;;;21.27;73.60;99181.28;5031621;28;20194;-77
2023/08/08 03:05:07;;;;;;;0.80;0.80;;;;;;;21.18;74.10;99180.22;5031680;28;20194;-75
2023/08/08 03:07:35;;;;;;;0.73;0.73;;;;;;;21.14;74.66;99192.63;5031247;28;20259;-73
2023/08/08 03:10:01;;;;;;;2.07;0.80;;;;;;;21.22;74.66;99191.28;5031917;28;20193;-75
2023/08/08 03:12:28;;;;;;;0.80;0.80;;;;;;;21.24;75.32;99203.47;5031668;28;20743;-75
2023/08/08 03:14:55;;;;;;;0.90;0.90;;;;;;;21.10;75.68;99198.88;5031970;28;20193;-77
2023/08/08 03:17:21;;;;;;;0.90;0.90;;;;;;;20.93;76.77;99212.63;5031744;28;20197;-75
2023/08/08 03:19:48;;;;;;;1.20;1.10;;;;;;;20.94;77.38;99219.66;5031576;28;20193;-76
2023/08/08 03:22:15;;;;;;;3.80;0.97;;;;;;;20.99;77.23;99216.16;5030753;28;20275;-76
2023/08/08 03:24:43;;;;;;;0.60;0.60;;;;;;;20.78;78.47;99217.97;5031867;28;20228;-76
2023/08/08 03:27:10;;;;;;;1.00;1.00;;;;;;;20.85;78.89;99232.03;5031744;28;20190;-76
2023/08/08 03:29:36;;;;;;;1.47;0.93;;;;;;;20.61;79.78;99232.81;5031842;28;20202;-76
2023/08/08 03:32:04;;;;;;;1.10;1.00;;;;;;;20.62;79.95;99237.13;5030903;28;20205;-76
2023/08/08 03:34:31;;;;;;;2.23;1.70;;;;;;;20.57;80.49;99240.63;5031326;28;20280;-76
2023/08/08 03:36:57;;;;;;;2.33;0.93;;;;;;;20.55;81.06;99253.59;5031588;28;20657;-75
2023/08/08 03:39:24;;;;;;;1.23;1.20;;;;;;;20.63;81.87;99261.97;5031113;28;20294;-76
2023/08/08 03:41:52;;;;;;;6.23;1.80;;;;;;;20.78;81.49;99268.47;5030997;28;20197;-77
2023/08/08 03:44:19;;;;;;;4.50;1.20;;;;;;;20.80;82.30;99261.75;5030339;28;20201;-76
2023/08/08 03:46:46;;;;;;;2.63;1.27;;;;;;;21.03;82.84;99265.84;5031347;28;20255;-75
2023/08/08 03:49:12;;;;;;;2.43;1.13;;;;;;;21.07;83.23;99275.81;5031414;28;20201;-76
2023/08/08 03:51:39;;;;;;;3.87;1.20;;;;;;;20.75;84.08;99286.03;5030879;28;20265;-75
2023/08/08 03:54:06;;;;;;;1.87;1.00;;;;;;;20.82;83.85;99286.56;5031151;28;20569;-76
2023/08/08 03:56:32;;;;;;;1.30;0.90;;;;;;;20.75;83.89;99296.81;5030838;28;20190;-75
2023/08/08 03:59:00;;;;;;;1.80;0.90;;;;;;;20.76;82.94;99309.25;5031218;28;20221;-76
2023/08/08 04:01:27;;;;;;;1.77;1.20;;;;;;;20.95;81.53;99313.09;5031625;28;20205;-76
2023/08/08 04:03:54;;;;;;;1.13;0.77;;;;;;;20.72;82.21;99313.56;5034773;28;20263;-76
2023/08/08 04:06:20;;;;;;;2.10;1.00;;;;;;;20.42;82.54;99313.47;5033763;28;20669;-76
2023/08/08 04:08:47;;;;;;;4.13;1.17;;;;;;;20.34;82.29;99317.44;5034751;28;20597;-75
2023/08/08 04:11:14;;;;;;;4.20;1.10;;;;;;;20.23;82.78;99325.75;5034368;28;20194;-76
2023/08/08 04:13:40;;;;;;;4.13;1.10;;;;;;;19.97;84.46;99324.78;5033939;28;20201;-74
2023/08/08 04:16:08;;;;;;;3.27;1.20;;;;;;;20.03;86.66;99341.81;5034551;28;20197;-75
2023/08/08 04:18:35;;;;;;;4.23;1.13;;;;;;;20.26;88.12;99327.94;5034253;28;20225;-75
2023/08/08 04:21:02;;;;;;;4.90;1.57;;;;;;;20.23;90.95;99352.75;5034346;28;20200;-76
2023/08/08 04:23:28;;;;;;;9.40;1.80;;;;;;;19.93;95.48;99352.53;5033910;28;20198;-76
2023/08/08 04:25:55;;;;;;;5.00;1.53;;;;;;;19.97;96.63;99361.72;5034095;28;20260;-75
2023/08/08 04:28:22;;;;;;;4.83;1.93;;;;;;;19.79;100.00;99359.44;5033066;28;20613;-76
2023/08/08 04:30:48;;;;;;;2.87;1.20;;;;;;;19.57;100.00;99366.81;5034230;28;20190;-75
2023/08/08 04:33:16;;;;;;;1.63;1.53;;;;;;;19.51;100.00;99354.34;5034046;28;20197;-77
2023/08/08 04:35:43;;;;;;;1.83;1.30;;;;;;;19.64;100.00;99359.34;5034340;28;20201;-76
2023/08/08 04:38:10;;;;;;;2.73;1.37;;;;;;;19.63;100.00;99361.19;5034404;28;20221;-78
2023/08/08 04:40:37;;;;;;;1.70;1.60;;;;;;;19.49;100.00;99361.88;5028541;28;20680;-68
2023/08/08 04:43:04;;;;;;;1.77;1.67;;;;;;;19.58;100.00;99360.34;5030625;28;20561;-71
2023/08/08 04:45:30;;;;;;;1.77;1.30;;;;;;;19.57;100.00;99364.91;5017104;28;20571;-70
2023/08/08 04:47:57;;;;;;;1.67;1.50;;;;;;;19.42;100.00;99372.88;5034358;28;20190;-71
2023/08/08 04:50:25;;;;;;;1.80;1.70;;;;;;;19.11;100.00;99370.91;5031430;28;20243;-68
2023/08/08 04:52:52;;;;;;;1.47;1.47;;;;;;;19.31;100.00;99381.94;5033242;28;20192;-68
2023/08/08 04:55:19;;;;;;;1.60;1.50;;;;;;;19.36;100.00;99389.25;5033861;28;20197;-72
2023/08/08 04:57:45;;;;;;;2.50;1.57;;;;;;;19.32;100.00;99405.09;5033466;28;20242;-68
2023/08/08 05:00:15;;;;;;;1.90;1.70;;;;;;;19.15;100.00;99403.56;5032236;28;20213;-69
2023/08/08 05:02:42;;;;;;;2.50;1.43;;;;;;;19.08;100.00;99408.31;5031715;28;20193;-70
2023/08/08 05:05:09;;;;;;;1.80;1.70;;;;;;;19.27;100.00;99417.69;5028523;28;20208;-70
2023/08/08 05:07:37;;;;;;;2.07;1.97;;;;;;;19.26;100.00;99418.75;5032597;28;20201;-67
2023/08/08 05:10:05;;;;;;;3.43;1.93;;;;;;;19.38;100.00;99424.81;5032417;28;20201;-70
2023/08/08 05:12:32;;;;;;;1.90;1.80;;;;;;;19.43;100.00;99427.56;5032335;28;20200;-70
2023/08/08 05:14:58;;;;;;;2.10;1.67;;;;;;;19.48;100.00;99431.13;5032369;28;20838;-67
2023/08/08 05:17:25;;;;;;;1.63;1.57;;;;;;;19.53;100.00;99439.25;5032885;28;20742;-67
2023/08/08 05:19:52;;;;;;;2.03;1.63;;;;;;;19.57;100.00;99444.97;5032808;28;20712;-68
2023/08/08 05:22:18;;;;;;;1.53;1.43;;;;;;;19.66;100.00;99459.59;5032999;28;20201;-69
2023/08/08 05:24:46;;;;;;;1.70;1.60;;;;;;;19.67;100.00;99455.81;5031546;28;20287;-66
2023/08/08 05:27:13;;;;;;;2.80;1.70;;;;;;;19.69;100.00;99461.78;5031413;28;20190;-67
2023/08/08 05:29:40;;;;;;;1.63;1.53;;;;;;;19.73;100.00;99476.38;5031313;28;20194;-68
2023/08/08 05:32:08;;;;;;;1.97;1.80;;;;;;;19.78;100.00;99469.16;5031118;28;20189;-66
2023/08/08 05:34:35;;;;;;;1.83;1.47;;;;;;;19.80;100.00;99476.97;5031955;28;20251;-65
2023/08/08 05:37:02;;;;;;;3.20;1.73;;;;;;;19.72;100.00;99472.03;5032656;28;20259;-66
2023/08/08 05:39:29;;;;;;;2.40;1.60;;;;;;;19.80;100.00;99485.03;5032779;28;20217;-66
2023/08/08 05:41:57;;;;;;;1.90;1.70;;;;;;;19.65;100.00;99496.50;5031904;28;20255;-63
2023/08/08 05:44:23;;;;;;;1.37;1.37;;;;;;;19.51;100.00;99505.25;5032459;28;20251;-65
2023/08/08 05:46:50;;;;;;;1.93;1.73;;;;;;;19.41;99.86;99502.44;5031208;28;20612;-68
2023/08/08 05:49:17;;;;;;;1.70;1.60;;;;;;;19.35;100.00;99496.19;5031488;28;20684;-66
2023/08/08 05:51:43;;;;;;;2.17;1.90;;;;;;;19.30;100.00;99503.38;5031696;28;20572;-68
2023/08/08 05:54:11;;;;;;;2.30;2.10;;;;;;;19.20;100.00;99508.63;5030479;28;20197;-66
2023/08/08 05:56:38;;;;;;;2.30;2.20;;;;;;;19.11;100.00;99510.16;5031042;28;20185;-67
2023/08/08 05:59:06;;;;;;;2.27;2.17;;;;;;;19.21;100.00;99507.56;5031914;28;20273;-67
2023/08/08 06:01:33;;;;;;;3.17;2.30;;;;;;;19.20;100.00;99511.31;5031175;28;20251;-67
2023/08/08 06:04:00;;;;;;;2.10;2.00;;;;;;;19.05;99.95;99511.13;5031546;28;20620;-67
2023/08/08 06:06:27;;;;;;;3.37;1.97;;;;;;;19.14;100.00;99515.84;5031549;28;20687;-67
2023/08/08 06:08:54;;;;;;;2.50;2.40;;;;;;;19.10;100.00;99513.88;5031613;28;20201;-68
2023/08/08 06:11:21;;;;;;;2.90;2.27;;;;;;;19.20;99.42;99514.03;5030428;28;20196;-69
2023/08/08 06:13:49;;;;;;;2.93;2.70;;;;;;;19.30;99.06;99514.97;5028852;28;20215;-68
2023/08/08 06:16:18;;;;;;;1.97;1.87;;;;;;;19.44;99.07;99520.81;5028877;28;20210;-66
2023/08/08 06:18:45;;;;;;;2.30;2.13;;;;;;;19.79;97.61;99515.78;5030803;28;20699;-67
2023/08/08 06:21:11;;;;;;;2.13;2.03;;;;;;;19.99;97.39;99524.06;5031083;28;20220;-66
2023/08/08 06:23:38;;;;;;;2.00;1.90;;;;;;;20.28;98.21;99525.41;5031229;28;20279;-67
2023/08/08 06:26:05;;;;;;;2.37;2.07;;;;;;;20.68;94.58;99523.03;5030468;28;20221;-66
2023/08/08 06:28:32;;;;;;;1.80;1.70;;;;;;;21.30;91.91;99523.91;5031557;28;20249;-67
2023/08/08 06:30:59;;;;;;;2.03;1.93;;;;;;;21.77;85.82;99531.94;5031739;28;20197;-67
2023/08/08 06:33:28;;;;;;;4.70;2.07;;;;;;;21.97;84.02;99521.94;5031784;28;20193;-67
2023/08/08 06:35:55;;;;;;;1.80;1.70;;;;;;;22.08;84.33;99523.56;5031508;28;20193;-67
2023/08/08 06:38:21;;;;;;;2.20;1.77;;;;;;;22.50;80.93;99532.25;5031291;28;20197;-67
2023/08/08 06:40:49;;;;;;;2.20;1.70;;;;;;;22.78;79.29;99531.69;5030118;28;20221;-66
2023/08/08 06:43:15;;;;;;;2.00;1.90;;;;;;;23.00;79.87;99528.66;5030996;28;20194;-67
2023/08/08 06:45:42;;;;;;;1.80;1.70;;;;;;;;;;5030979;28;20252;-67
2023/08/08 06:48:09;;;;;;;1.87;1.77;;;;;;;23.53;75.76;99530.66;5031741;28;20204;-68
2023/08/08 06:50:37;;;;;;;2.50;2.30;;;;;;;23.68;75.46;99528.66;5030191;28;20640;-67
2023/08/08 06:53:04;;;;;;;2.77;2.20;;;;;;;23.75;76.60;99523.75;5031131;28;20269;-68
2023/08/08 06:55:31;;;;;;;3.17;2.27;;;;;;;23.93;75.02;99531.25;5030705;28;20200;-70
2023/08/08 06:57:58;;;;;;;2.00;1.90;;;;;;;23.93;75.74;99531.25;5031678;28;20192;-70
2023/08/08 07:00:26;;;;;;;2.43;2.00;;;;;;;23.93;75.38;99531.25;5030223;28;20774;-68
2023/08/08 07:02:53;;;;;;;2.03;1.87;;;;;;;23.78;74.19;99536.75;5029463;28;20196;-67
2023/08/08 07:05:22;;;;;;;1.97;1.87;;;;;;;23.56;74.23;99533.59;5031481;28;20208;-68
2023/08/08 07:07:50;;;;;;;2.17;2.00;;;;;;;23.24;77.27;99532.41;5031582;28;20196;-68
2023/08/08 07:10:17;;;;;;;2.10;1.80;;;;;;;23.09;78.10;99525.13;5031135;28;20269;-68
2023/08/08 07:12:43;;;;;;;2.90;2.70;;;;;;;23.05;80.07;99513.19;5031188;28;20253;-69
2023/08/08 07:15:10;;;;;;;2.30;2.07;;;;;;;22.87;79.97;99516.50;5030875;28;20204;-68
2023/08/08 07:17:37;;;;;;;2.37;2.27;;;;;;;22.77;79.10;99521.13;5031529;28;20194;-68
2023/08/08 07:20:05;;;;;;;4.90;2.87;;;;;;;22.78;81.54;99531.69;5029947;28;20259;-68
2023/08/08 07:22:32;;;;;;;2.60;2.40;;;;;;;22.89;81.32;99524.34;5030926;28;20207;-68
2023/08/08 07:25:00;;;;;;;2.30;2.20;;;;;;;22.95;81.07;99528.69;5030654;28;20227;-68
2023/08/08 07:27:27;;;;;;;2.60;2.40;;;;;;;22.99;81.33;99530.53;5030749;28;20241;-68
2023/08/08 07:29:54;;;;;;;2.30;2.20;;;;;;;22.96;79.78;99535.72;5030718;28;20215;-69
2023/08/08 07:32:20;;;;;;;3.47;1.70;;;;;;;22.92;78.30;99540.88;5030627;28;20606;-68
2023/08/08 07:34:47;;;;;;;2.20;2.00;;;;;;;22.84;79.28;99536.03;5031508;28;20261;-67
2023/08/08 07:37:15;;;;;;;2.20;2.10;;;;;;;22.77;75.96;99548.22;5035196;28;20226;-67
2023/08/08 07:39:41;;;;;;;2.20;1.60;;;;;;;22.59;78.49;99541.47;5035411;28;20219;-67
2023/08/08 07:42:09;;;;;;;1.90;1.80;;;;;;;22.57;77.72;99542.81;5034792;28;20253;-67
2023/08/08 07:44:38;;;;;;;1.93;1.83;;;;;;;22.49;79.57;99540.66;5035468;28;20281;-68
2023/08/08 07:47:05;;;;;;;3.60;1.80;;;;;;;22.56;78.08;99543.91;5035020;28;20289;-68
2023/08/08 07:49:32;;;;;;;2.17;2.07;;;;;;;22.69;80.29;99540.63;5034922;28;20731;-68
2023/08/08 07:51:58;;;;;;;3.27;2.97;;;;;;;22.57;79.12;99546.34;5034970;28;20620;-68
2023/08/08 07:54:25;;;;;;;2.00;1.90;;;;;;;22.35;76.65;99556.63;5035026;28;20211;-68
2023/08/08 07:56:52;;;;;;;2.17;1.97;;;;;;;22.30;77.29;99559.31;5034777;28;20249;-68
2023/08/08 07:59:20;;;;;;;2.20;2.00;;;;;;;22.24;77.62;99549.56;5034355;28;20225;-68
2023/08/08 08:01:46;;;;;;;2.20;2.10;;;;;;;22.19;79.22;99557.69;5033238;28;20276;-69
2023/08/08 08:04:13;;;;;;;2.43;1.90;;;;;;;22.01;77.99;99554.69;5032108;28;20194;-70
2023/08/08 08:06:40;;;;;;;3.10;1.70;;;;;;;21.91;75.51;99560.91;5033867;28;20259;-70
2023/08/08 08:09:06;;;;;;;2.67;1.60;;;;;;;21.98;75.75;99564.16;5034388;28;20202;-65
2023/08/08 08:11:33;;;;;;;1.80;1.70;;;;;;;21.81;76.45;99554.66;5032819;28;20661;-66
2023/08/08 08:14:00;;;;;;;2.10;1.50;;;;;;;21.88;75.86;99558.72;5017395;28;20545;-65
2023/08/08 08:16:28;;;;;;;3.57;2.00;;;;;;;21.93;75.01;99563.34;5033033;28;20193;-67
2023/08/08 08:18:55;;;;;;;6.03;2.03;;;;;;;21.99;73.91;99563.06;5031337;28;20197;-67
2023/08/08 08:21:21;;;;;;;5.67;2.33;;;;;;;22.07;75.47;99559.84;5031715;28;20222;-66
2023/08/08 08:23:49;;;;;;;3.20;1.63;;;;;;;22.05;74.46;99556.56;5030978;28;20197;-67
2023/08/08 08:26:15;;;;;;;2.30;1.80;;;;;;;22.02;72.40;99567.97;5033206;28;20221;-67
2023/08/08 08:28:42;;;;;;;1.60;1.50;;;;;;;22.01;73.05;99563.59;5032119;28;20201;-67
2023/08/08 08:31:09;;;;;;;4.33;1.57;;;;;;;22.21;73.12;99558.22;5032264;28;20197;-69
2023/08/08 08:33:37;;;;;;;1.90;1.60;;;;;;;22.26;72.60;99560.91;5032661;28;20197;-69
2023/08/08 08:36:04;;;;;;;1.63;1.50;;;;;;;22.26;70.75;99573.66;5032582;28;20190;-68
2023/08/08 08:38:30;;;;;;;3.97;1.43;;;;;;;22.37;71.00;99564.47;5032964;28;20730;-67
2023/08/08 08:40:58;;;;;;;1.90;1.30;;;;;;;22.64;70.33;99560.44;5030660;28;20229;-68
2023/08/08 08:43:25;;;;;;;1.60;1.40;;;;;;;22.78;68.92;99566.09;5029788;28;20625;-67
2023/08/08 08:45:53;;;;;;;2.47;1.43;;;;;;;23.12;67.87;99562.47;5032321;28;20223;-69
2023/08/08 08:48:22;;;;;;;2.00;1.33;;;;;;;23.74;67.55;99554.69;5030676;28;20195;-68
2023/08/08 08:50:51;;;;;;;1.60;1.50;;;;;;;24.19;65.70;99557.13;5033052;28;20197;-68
2023/08/08 08:53:18;;;;;;;2.90;1.20;;;;;;;24.56;63.81;99562.81;5032546;28;20671;-66
2023/08/08 08:55:45;;;;;;;1.60;1.10;;;;;;;24.98;62.05;99552.09;5023762;28;20292;-68
2023/08/08 08:58:15;;;;;;;4.37;1.50;;;;;;;25.43;60.23;99555.41;5031127;28;20219;-68
2023/08/08 09:00:42;;;;;;;1.20;1.10;;;;;;;25.59;57.42;99570.44;5031613;28;20224;-73
2023/08/08 09:03:09;;;;;;;2.40;1.30;;;;;;;25.75;58.12;99561.78;5031232;28;20217;-68
2023/08/08 09:05:37;;;;;;;3.57;1.30;;;;;;;25.72;56.85;99565.06;5031707;28;20185;-71
2023/08/08 09:08:06;;;;;;;2.20;1.40;;;;;;;25.94;56.80;99559.09;5032689;28;20727;-70
2023/08/08 09:10:34;;;;;;;2.83;1.40;;;;;;;26.31;56.19;99548.19;5032992;28;20566;-68
2023/08/08 09:13:01;;;;;;;3.47;1.50;;;;;;;26.58;53.57;99557.28;5032290;28;20673;-71
2023/08/08 09:15:31;;;;;;;1.73;0.80;;;;;;;26.86;53.94;99552.72;5032615;28;20201;-68
2023/08/08 09:17:58;;;;;;;4.70;1.40;;;;;;;27.17;50.93;99548.28;5032122;28;20731;-69
2023/08/08 09:20:27;;;;;;;2.50;1.63;;;;;;;27.57;51.92;99558.41;5032990;28;20217;-69
2023/08/08 09:22:54;;;;;;;0.90;0.90;;;;;;;27.77;45.86;99563.44;5032264;28;20274;-69
2023/08/08 09:25:23;;;;;;;4.87;1.63;;;;;;;27.82;48.10;99560.63;5032085;28;20213;-69
2023/08/08 09:27:51;;;;;;;1.70;1.37;;;;;;;27.69;45.98;99562.22;5032936;28;20193;-68
2023/08/08 09:30:18;;;;;;;2.00;0.93;;;;;;;27.99;47.10;99555.31;5032527;28;20197;-69
2023/08/08 09:32:45;;;;;;;1.10;1.10;;;;;;;28.17;44.54;99559.81;5032607;28;20665;-68
2023/08/08 09:35:12;;;;;;;0.93;0.93;;;;;;;28.43;45.89;99538.97;5031438;28;20724;-69
2023/08/08 09:37:39;;;;;;;1.90;1.60;;;;;;;28.42;43.21;99560.03;5031579;28;20194;-68
2023/08/08 09:40:07;;;;;;;1.60;1.50;;;;;;;28.67;44.14;99558.59;5031202;28;20275;-70
2023/08/08 09:42:36;;;;;;;1.50;1.40;;;;;;;28.93;41.75;99556.81;5031230;28;20240;-65
2023/08/08 09:45:03;;;;;;;2.20;2.20;;;;;;;29.05;39.54;99524.22;5031919;28;20197;-67
2023/08/08 09:47:31;;;;;;;7.43;2.60;;;;;;;29.18;40.73;99520.56;5031466;28;20193;-65
2023/08/08 09:50:00;;;;;;;1.60;1.50;;;;;;;29.17;39.75;99511.56;5032044;28;20216;-66
2023/08/08 09:52:28;;;;;;;1.30;1.30;;;;;;;29.40;39.00;99505.97;5030731;28;20615;-68
2023/08/08 09:54:55;;;;;;;2.60;1.30;;;;;;;29.38;39.73;99506.28;5029655;28;20247;-67
2023/08/08 09:57:23;;;;;;;1.30;1.30;;;;;;;29.30;38.66;99501.59;5031626;28;20263;-67
2023/08/08 09:59:52;;;;;;;2.80;1.10;;;;;;;28.87;38.92;99498.69;5029871;28;20217;-67
2023/08/08 10:02:19;;;;;;;8.10;1.57;;;;;;;28.81;40.20;99508.16;5023775;28;20665;-67
2023/08/08 10:04:46;;;;;;;2.40;1.17;;;;;;;28.86;40.32;99504.47;5026762;28;20189;-67
2023/08/08 10:07:13;;;;;;;4.17;1.10;;;;;;;29.06;39.05;99507.50;5030070;28;20278;-69
2023/08/08 10:09:40;;;;;;;2.00;0.90;;;;;;;28.96;38.37;99505.00;5031408;28;20185;-66
2023/08/08 10:12:08;;;;;;;1.73;1.00;;;;;;;29.08;40.12;99504.44;5030723;28;20189;-67
2023/08/08 10:14:39;;;;;;;1.57;1.03;;;;;;;29.23;38.79;99509.47;5031748;28;20189;-67
2023/08/08 10:17:07;;;;;;;3.00;1.13;;;;;;;28.97;38.15;99508.56;5031527;28;20196;-68
2023/08/08 10:19:35;;;;;;;1.30;1.30;;;;;;;29.24;38.33;99502.91;5031884;28;20193;-67
2023/08/08 10:22:05;;;;;;;1.10;1.10;;;;;;;29.24;37.07;99502.91;5031868;28;20197;-66
2023/08/08 10:24:35;;;;;;;2.53;1.07;;;;;;;29.04;36.29;99506.19;5031326;28;20291;-68
2023/08/08 10:27:03;;;;;;;0.80;0.80;;;;;;;28.94;37.66;99504.53;5031248;28;20280;-67
2023/08/08 10:29:34;;;;;;;1.43;1.30;;;;;;;29.25;38.12;99509.97;5031530;28;20197;-68
2023/08/08 10:32:03;;;;;;;1.30;1.20;;;;;;;29.56;37.23;99507.16;5031073;28;20197;-68
2023/08/08 10:34:39;;;;;;;3.63;1.20;;;;;;;29.67;36.55;99509.28;5031974;28;20194;-67
2023/08/08 10:37:09;;;;;;;2.40;1.10;;;;;;;29.88;35.16;99499.28;5030977;28;20563;-68
2023/08/08 10:39:36;;;;;;;3.07;1.00;;;;;;;29.90;34.62;99505.28;5031259;28;20194;-70
2023/08/08 10:42:05;;;;;;;1.00;1.00;;;;;;;29.68;34.30;99494.44;5030944;28;20761;-68
2023/08/08 10:44:42;;;;;;;1.63;1.00;;;;;;;29.71;35.29;99499.28;5014810;28;20216;-67
2023/08/08 10:47:12;;;;;;;2.63;1.13;;;;;;;30.05;35.26;99496.53;5031259;28;20219;-67
2023/08/08 10:49:43;;;;;;;2.20;0.97;;;;;;;30.35;33.43;99492.84;5029534;28;20193;-69
2023/08/08 10:52:15;;;;;;;1.03;1.03;;;;;;;30.33;32.25;99494.31;5029831;28;20185;-66
2023/08/08 10:54:53;;;;;;;4.47;0.90;;;;;;;30.33;33.35;99483.34;5030747;28;20212;-67
2023/08/08 10:57:25;;;;;;;1.10;1.00;;;;;;;30.55;32.81;99475.72;5031332;28;20264;-66
2023/08/08 10:59:52;;;;;;;1.63;1.00;;;;;;;30.59;31.58;99478.59;5030612;28;20197;-67
2023/08/08 11:02:20;;;;;;;1.83;1.00;;;;;;;30.55;31.91;99472.97;5031054;28;20201;-68
2023/08/08 11:04:49;;;;;;;1.53;1.20;;;;;;;30.31;31.92;99469.97;5030732;28;20193;-69
2023/08/08 11:07:16;;;;;;;4.63;1.43;;;;;;;30.47;32.08;99479.28;5030818;28;20197;-69
2023/08/08 11:09:43;;;;;;;1.53;1.40;;;;;;;30.53;32.75;99477.97;5031258;28;20229;-69
2023/08/08 11:12:15;;;;;;;1.27;1.17;;;;;;;30.70;32.27;99477.94;5033720;28;20664;-69
2023/08/08 11:14:41;;;;;;;14.77;2.30;;;;;;;30.77;31.81;99472.75;5034703;28;20208;-69
2023/08/08 11:17:08;;;;;;;1.40;1.30;;;;;;;30.79;31.59;99465.00;5033901;28;20657;-68
2023/08/08 11:19:40;;;;;;;0.90;0.90;;;;;;;30.87;31.87;99461.41;5034660;28;20281;-68
2023/08/08 11:22:12;;;;;;;6.53;1.30;;;;;;;31.07;32.21;99455.16;5033956;28;20270;-68
2023/08/08 11:24:38;;;;;;;1.97;1.03;;;;;;;31.15;31.91;99462.56;5033147;28;20260;-68
2023/08/08 11:27:05;;;;;;;1.27;1.27;;;;;;;31.07;30.92;99463.41;5034257;28;20255;-68
2023/08/08 11:29:32;;;;;;;6.30;1.40;;;;;;;30.58;31.18;99455.84;5035033;28;20197;-68
2023/08/08 11:32:01;;;;;;;1.53;1.07;;;;;;;30.49;29.98;99457.03;5033203;28;20212;-70